createdAt,value
2023-10-02T00:00:15.346Z,101845.59
2023-10-02T00:01:17.146Z,101848.28
2023-10-02T00:02:20.224Z,101847.38
2023-10-02T00:03:21.951Z,101840.22
2023-10-02T00:04:23.717Z,101841.09
2023-10-02T00:05:25.320Z,101839.31
2023-10-02T00:06:26.932Z,101833.97
2023-10-02T00:07:28.528Z,101840.19
2023-10-02T00:08:30.102Z,101836.63
2023-10-02T00:09:32.002Z,101834.84
2023-10-02T00:10:33.876Z,101843.72
2023-10-02T00:11:35.710Z,101834.81
2023-10-02T00:12:37.290Z,101836.63
2023-10-02T00:13:40.314Z,101835.75
2023-10-02T00:14:43.505Z,101838.41
2023-10-02T00:15:45.398Z,101830.38
2023-10-02T00:16:50.823Z,101836.59
2023-10-02T00:17:52.671Z,101835.72
2023-10-02T00:18:54.401Z,101840.16
2023-10-02T00:19:56.098Z,101834.84
2023-10-02T00:20:57.757Z,101833.06
2023-10-02T00:22:00.078Z,101839.28
2023-10-02T00:23:02.046Z,101832.19
2023-10-02T00:24:04.094Z,101833.09
2023-10-02T00:25:10.911Z,101825.94
2023-10-02T00:26:12.650Z,101825.06
2023-10-02T00:27:16.232Z,101831.34
2023-10-02T00:28:17.952Z,101836.69
2023-10-02T00:29:20.931Z,101828.66
2023-10-02T00:30:25.048Z,101830.44
2023-10-02T00:31:26.892Z,101829.56
2023-10-02T00:32:29.876Z,101828.69
2023-10-02T00:33:31.552Z,101824.22
2023-10-02T00:34:33.227Z,101819.75
2023-10-02T00:35:34.941Z,101824.22
2023-10-02T00:36:36.599Z,101817.97
2023-10-02T00:37:39.737Z,101825.13
2023-10-02T00:38:41.361Z,101817.97
2023-10-02T00:39:43.847Z,101828.69
2023-10-02T00:40:45.674Z,101821.53
2023-10-02T00:41:47.529Z,101827.78
2023-10-02T00:42:49.846Z,101823.31
2023-10-02T00:43:51.778Z,101833.13
2023-10-02T00:44:55.769Z,101821.53
2023-10-02T00:45:58.226Z,101825.94
2023-10-02T00:46:59.968Z,101825.94
2023-10-02T00:48:01.719Z,101822.41
2023-10-02T00:49:03.544Z,101818.81
2023-10-02T00:50:11.308Z,101824.13
2023-10-02T00:51:12.986Z,101825.00
2023-10-02T00:52:14.605Z,101829.44
2023-10-02T00:53:17.406Z,101829.44
2023-10-02T00:54:19.284Z,101827.69
2023-10-02T00:55:23.573Z,101826.78
2023-10-02T00:56:25.361Z,101829.47
2023-10-02T00:57:27.121Z,101823.22
2023-10-02T00:58:30.773Z,101824.13
2023-10-02T00:59:32.371Z,101832.19
2023-10-02T01:00:36.509Z,101827.72
2023-10-02T01:01:38.205Z,101833.97
2023-10-02T01:02:40.002Z,101839.31
2023-10-02T01:03:41.823Z,101835.75
2023-10-02T01:04:43.599Z,101833.09
2023-10-02T01:05:45.909Z,101836.63
2023-10-02T01:06:47.608Z,101834.03
2023-10-02T01:07:50.996Z,101838.50
2023-10-02T01:08:52.850Z,101834.03
2023-10-02T01:09:54.528Z,101839.38
2023-10-02T01:10:58.487Z,101833.13
2023-10-02T01:12:00.305Z,101838.47
2023-10-02T01:13:02.147Z,101831.28
2023-10-02T01:14:03.777Z,101833.06
2023-10-02T01:15:08.211Z,101833.97
2023-10-02T01:16:11.227Z,101833.13
2023-10-02T01:17:14.241Z,101827.78
2023-10-02T01:18:16.017Z,101828.66
2023-10-02T01:19:18.418Z,101828.69
2023-10-02T01:20:20.321Z,101823.34
2023-10-02T01:21:22.000Z,101830.47
2023-10-02T01:22:26.430Z,101829.56
2023-10-02T01:23:30.449Z,101830.47
2023-10-02T01:24:33.525Z,101830.47
2023-10-02T01:25:35.348Z,101832.25
2023-10-02T01:26:38.567Z,101829.56
2023-10-02T01:27:40.660Z,101830.50
2023-10-02T01:28:42.464Z,101831.38
2023-10-02T01:29:44.096Z,101829.59
2023-10-02T01:30:45.807Z,101825.13
2023-10-02T01:31:47.583Z,101826.03
2023-10-02T01:32:56.661Z,101822.44
2023-10-02T01:33:58.337Z,101836.72
2023-10-02T01:34:59.948Z,101823.34
2023-10-02T01:36:01.712Z,101831.34
2023-10-02T01:37:03.457Z,101827.81
2023-10-02T01:38:07.962Z,101827.78
2023-10-02T01:39:09.590Z,101826.94
2023-10-02T01:40:12.709Z,101828.69
2023-10-02T01:41:14.371Z,101830.47
2023-10-02T01:42:16.027Z,101826.03
2023-10-02T01:43:24.776Z,101817.13
2023-10-02T01:44:26.404Z,101819.78
2023-10-02T01:45:28.106Z,101822.47
2023-10-02T01:46:29.742Z,101834.03
2023-10-02T01:47:31.605Z,101830.50
2023-10-02T01:48:35.384Z,101824.22
2023-10-02T01:49:36.850Z,101833.16
2023-10-02T01:50:38.556Z,101824.22
2023-10-02T01:51:40.206Z,101825.94
2023-10-02T01:52:50.790Z,101822.31
2023-10-02T01:53:55.222Z,101827.69
2023-10-02T01:54:59.463Z,101827.63
2023-10-02T01:56:02.487Z,101832.09
2023-10-02T01:57:04.110Z,101827.66
2023-10-02T01:58:05.721Z,101818.78
2023-10-02T01:59:07.436Z,101827.75
2023-10-02T02:00:10.567Z,101823.31
2023-10-02T02:01:12.700Z,101822.44
2023-10-02T02:02:14.693Z,101820.69
2023-10-02T02:03:16.636Z,101819.81
2023-10-02T02:04:18.684Z,101817.09
2023-10-02T02:05:20.319Z,101819.81
2023-10-02T02:06:24.244Z,101813.56
2023-10-02T02:07:25.919Z,101817.13
2023-10-02T02:08:28.512Z,101806.41
2023-10-02T02:09:31.422Z,101802.84
2023-10-02T02:10:33.265Z,101798.41
2023-10-02T02:11:36.402Z,101801.06
2023-10-02T02:12:38.065Z,101799.25
2023-10-02T02:13:39.744Z,101793.03
2023-10-02T02:14:43.358Z,101788.59
2023-10-02T02:15:46.381Z,101790.34
2023-10-02T02:16:48.045Z,101793.94
2023-10-02T02:17:50.040Z,101803.75
2023-10-02T02:18:52.764Z,101813.47
2023-10-02T02:19:56.015Z,101814.16
2023-10-02T02:20:57.688Z,101822.88
2023-10-02T02:21:59.462Z,101814.03
2023-10-02T02:23:01.136Z,101823.91
2023-10-02T02:24:02.868Z,101824.91
2023-10-02T02:25:05.339Z,101820.25
2023-10-02T02:26:07.262Z,101816.47
2023-10-02T02:27:10.653Z,101809.47
2023-10-02T02:28:13.010Z,101814.03
2023-10-02T02:29:14.630Z,101817.69
2023-10-02T02:30:16.373Z,101816.00
2023-10-02T02:31:19.502Z,101810.66
2023-10-02T02:32:22.539Z,101819.63
2023-10-02T02:33:24.170Z,101812.53
2023-10-02T02:34:25.968Z,101814.31
2023-10-02T02:35:28.186Z,101816.03
2023-10-02T02:36:31.979Z,101812.47
2023-10-02T02:37:33.741Z,101819.59
2023-10-02T02:38:35.482Z,101807.13
2023-10-02T02:39:37.177Z,101819.56
2023-10-02T02:40:38.931Z,101818.66
2023-10-02T02:41:40.704Z,101823.09
2023-10-02T02:42:43.688Z,101822.16
2023-10-02T02:43:45.317Z,101825.72
2023-10-02T02:44:48.340Z,101814.13
2023-10-02T02:45:51.615Z,101822.16
2023-10-02T02:46:54.123Z,101812.28
2023-10-02T02:47:55.974Z,101815.78
2023-10-02T02:48:57.898Z,101819.34
2023-10-02T02:49:59.803Z,101815.78
2023-10-02T02:51:01.788Z,101821.03
2023-10-02T02:52:03.725Z,101823.69
2023-10-02T02:53:05.738Z,101823.69
2023-10-02T02:54:07.688Z,101820.06
2023-10-02T02:55:09.542Z,101817.34
2023-10-02T02:56:11.204Z,101819.97
2023-10-02T02:57:12.839Z,101819.06
2023-10-02T02:58:15.835Z,101817.22
2023-10-02T02:59:17.496Z,101819.91
2023-10-02T03:00:19.262Z,101818.16
2023-10-02T03:01:21.836Z,101821.59
2023-10-02T03:02:23.501Z,101816.25
2023-10-02T03:03:25.348Z,101817.19
2023-10-02T03:04:26.962Z,101811.00
2023-10-02T03:05:28.842Z,101813.69
2023-10-02T03:06:30.449Z,101818.97
2023-10-02T03:07:32.047Z,101814.47
2023-10-02T03:08:33.667Z,101819.81
2023-10-02T03:09:35.293Z,101819.81
2023-10-02T03:10:37.073Z,101821.53
2023-10-02T03:11:39.020Z,101821.56
2023-10-02T03:12:41.277Z,101817.03
2023-10-02T03:13:44.248Z,101822.31
2023-10-02T03:14:45.904Z,101814.28
2023-10-02T03:15:47.539Z,101817.84
2023-10-02T03:16:49.229Z,101818.72
2023-10-02T03:17:50.933Z,101817.78
2023-10-02T03:18:52.575Z,101817.78
2023-10-02T03:19:54.197Z,101818.66
2023-10-02T03:20:55.976Z,101820.44
2023-10-02T03:21:57.618Z,101825.72
2023-10-02T03:22:59.447Z,101819.50
2023-10-02T03:24:04.151Z,101824.78
2023-10-02T03:25:06.713Z,101828.38
2023-10-02T03:26:12.953Z,101820.28
2023-10-02T03:27:14.721Z,101823.78
2023-10-02T03:28:16.368Z,101822.00
2023-10-02T03:29:19.349Z,101813.91
2023-10-02T03:30:21.037Z,101813.72
2023-10-02T03:31:22.639Z,101816.44
2023-10-02T03:32:24.296Z,101816.47
2023-10-02T03:33:26.556Z,101815.56
2023-10-02T03:34:28.365Z,101812.03
2023-10-02T03:35:34.791Z,101821.72
2023-10-02T03:36:36.376Z,101818.16
2023-10-02T03:37:38.040Z,101820.88
2023-10-02T03:38:39.838Z,101818.25
2023-10-02T03:39:43.193Z,101811.13
2023-10-02T03:40:45.313Z,101817.41
2023-10-02T03:41:46.933Z,101820.00
2023-10-02T03:42:48.790Z,101820.88
2023-10-02T03:43:50.457Z,101820.81
2023-10-02T03:44:53.983Z,101818.09
2023-10-02T03:45:59.516Z,101821.59
2023-10-02T03:47:01.314Z,101810.88
2023-10-02T03:48:03.008Z,101814.41
2023-10-02T03:49:04.773Z,101820.56
2023-10-02T03:50:07.536Z,101818.84
2023-10-02T03:51:09.827Z,101816.19
2023-10-02T03:52:12.417Z,101814.41
2023-10-02T03:53:14.178Z,101818.84
2023-10-02T03:54:15.830Z,101812.56
2023-10-02T03:55:17.879Z,101821.22
2023-10-02T03:56:19.499Z,101816.78
2023-10-02T03:57:21.169Z,101816.69
2023-10-02T03:58:22.808Z,101812.25
2023-10-02T03:59:25.672Z,101812.28
2023-10-02T04:00:28.725Z,101816.66
2023-10-02T04:01:31.456Z,101813.09
2023-10-02T04:02:33.435Z,101807.72
2023-10-02T04:03:35.438Z,101814.84
2023-10-02T04:04:38.761Z,101810.25
2023-10-02T04:05:40.466Z,101810.19
2023-10-02T04:06:42.528Z,101806.66
2023-10-02T04:07:44.264Z,101804.88
2023-10-02T04:08:45.793Z,101804.06
2023-10-02T04:09:49.182Z,101803.09
2023-10-02T04:10:52.180Z,101791.47
2023-10-02T04:11:55.431Z,101800.34
2023-10-02T04:12:57.045Z,101800.38
2023-10-02T04:13:58.687Z,101794.16
2023-10-02T04:15:00.289Z,101796.88
2023-10-02T04:16:04.471Z,101794.06
2023-10-02T04:17:07.976Z,101792.22
2023-10-02T04:18:09.692Z,101788.59
2023-10-02T04:19:11.294Z,101792.97
2023-10-02T04:20:13.480Z,101792.91
2023-10-02T04:21:15.781Z,101790.25
2023-10-02T04:22:18.076Z,101783.13
2023-10-02T04:23:19.727Z,101784.03
2023-10-02T04:24:21.357Z,101792.03
2023-10-02T04:25:23.018Z,101793.03
2023-10-02T04:26:26.152Z,101786.88
2023-10-02T04:27:29.572Z,101785.84
2023-10-02T04:28:32.723Z,101789.50
2023-10-02T04:29:34.469Z,101786.00
2023-10-02T04:30:36.531Z,101779.81
2023-10-02T04:31:39.745Z,101779.88
2023-10-02T04:32:42.646Z,101776.34
2023-10-02T04:33:44.288Z,101786.91
2023-10-02T04:34:46.013Z,101776.28
2023-10-02T04:35:47.570Z,101781.59
2023-10-02T04:36:49.166Z,101784.25
2023-10-02T04:37:50.778Z,101780.72
2023-10-02T04:38:52.390Z,101783.44
2023-10-02T04:39:54.489Z,101782.56
2023-10-02T04:40:56.184Z,101776.44
2023-10-02T04:41:58.620Z,101783.59
2023-10-02T04:43:00.187Z,101774.72
2023-10-02T04:44:02.077Z,101780.03
2023-10-02T04:45:04.611Z,101777.38
2023-10-02T04:46:06.375Z,101774.72
2023-10-02T04:47:09.480Z,101778.13
2023-10-02T04:48:11.915Z,101771.03
2023-10-02T04:49:13.638Z,101775.47
2023-10-02T04:50:15.420Z,101770.94
2023-10-02T04:51:17.160Z,101769.19
2023-10-02T04:52:18.735Z,101765.69
2023-10-02T04:53:21.010Z,101770.97
2023-10-02T04:54:22.730Z,101767.47
2023-10-02T04:55:26.113Z,101770.13
2023-10-02T04:56:27.936Z,101762.16
2023-10-02T04:57:29.584Z,101769.16
2023-10-02T04:58:31.353Z,101763.72
2023-10-02T04:59:32.953Z,101766.25
2023-10-02T05:00:34.623Z,101766.09
2023-10-02T05:01:36.539Z,101776.41
2023-10-02T05:02:39.525Z,101778.19
2023-10-02T05:03:41.162Z,101785.38
2023-10-02T05:04:43.047Z,101775.63
2023-10-02T05:05:45.683Z,101780.94
2023-10-02T05:06:47.247Z,101773.78
2023-10-02T05:07:49.079Z,101772.97
2023-10-02T05:08:50.890Z,101780.88
2023-10-02T05:09:52.553Z,101777.31
2023-10-02T05:10:54.255Z,101779.91
2023-10-02T05:11:55.944Z,101779.78
2023-10-02T05:12:57.675Z,101778.00
2023-10-02T05:13:59.401Z,101785.13
2023-10-02T05:15:01.321Z,101788.75
2023-10-02T05:16:07.113Z,101786.97
2023-10-02T05:17:08.818Z,101785.22
2023-10-02T05:18:12.092Z,101785.28
2023-10-02T05:19:14.386Z,101787.88
2023-10-02T05:20:16.186Z,101788.81
2023-10-02T05:21:18.330Z,101787.97
2023-10-02T05:22:20.034Z,101783.50
2023-10-02T05:23:22.503Z,101785.97
2023-10-02T05:24:25.377Z,101785.91
2023-10-02T05:25:29.658Z,101789.50
2023-10-02T05:26:31.500Z,101783.25
2023-10-02T05:27:35.162Z,101789.44
2023-10-02T05:28:36.735Z,101781.47
2023-10-02T05:29:38.504Z,101787.63
2023-10-02T05:30:42.512Z,101788.44
2023-10-02T05:31:44.478Z,101796.28
2023-10-02T05:32:46.260Z,101794.44
2023-10-02T05:33:49.247Z,101791.88
2023-10-02T05:34:51.206Z,101792.97
2023-10-02T05:35:52.883Z,101789.53
2023-10-02T05:36:56.204Z,101787.84
2023-10-02T05:37:57.800Z,101787.81
2023-10-02T05:38:59.777Z,101792.28
2023-10-02T05:40:02.434Z,101786.13
2023-10-02T05:41:10.686Z,101778.25
2023-10-02T05:42:15.878Z,101785.44
2023-10-02T05:43:17.988Z,101789.88
2023-10-02T05:44:19.681Z,101786.38
2023-10-02T05:45:22.334Z,101789.97
2023-10-02T05:46:24.011Z,101784.56
2023-10-02T05:47:25.734Z,101792.41
2023-10-02T05:48:27.824Z,101792.47
2023-10-02T05:49:33.997Z,101790.63
2023-10-02T05:50:36.697Z,101791.47
2023-10-02T05:51:41.471Z,101801.25
2023-10-02T05:52:45.278Z,101798.75
2023-10-02T05:53:49.740Z,101796.22
2023-10-02T05:54:51.548Z,101797.13
2023-10-02T05:55:54.096Z,101793.50
2023-10-02T05:56:57.223Z,101810.88
2023-10-02T05:58:02.789Z,101805.41
2023-10-02T05:59:04.684Z,101804.50
2023-10-02T06:00:07.871Z,101815.19
2023-10-02T06:01:11.757Z,101805.56
2023-10-02T06:02:13.428Z,101799.47
2023-10-02T06:03:15.342Z,101801.25
2023-10-02T06:04:17.157Z,101804.00
2023-10-02T06:05:20.437Z,101807.53
2023-10-02T06:06:22.073Z,101811.16
2023-10-02T06:07:25.087Z,101803.25
2023-10-02T06:08:26.764Z,101806.00
2023-10-02T06:09:28.386Z,101817.56
2023-10-02T06:10:29.980Z,101812.31
2023-10-02T06:11:32.221Z,101803.47
2023-10-02T06:12:34.381Z,101805.34
2023-10-02T06:13:36.156Z,101804.56
2023-10-02T06:14:41.443Z,101809.94
2023-10-02T06:15:43.182Z,101804.56
2023-10-02T06:16:45.250Z,101807.28
2023-10-02T06:17:46.977Z,101808.25
2023-10-02T06:18:48.671Z,101804.78
2023-10-02T06:19:52.480Z,101809.22
2023-10-02T06:20:57.002Z,101807.47
2023-10-02T06:22:00.830Z,101815.50
2023-10-02T06:23:02.475Z,101807.53
2023-10-02T06:24:05.191Z,101818.25
2023-10-02T06:25:07.691Z,101816.25
2023-10-02T06:26:09.516Z,101809.31
2023-10-02T06:27:11.180Z,101810.28
2023-10-02T06:28:12.906Z,101814.72
2023-10-02T06:29:14.567Z,101820.03
2023-10-02T06:30:16.503Z,101809.56
2023-10-02T06:31:18.453Z,101812.06
2023-10-02T06:32:23.186Z,101815.69
2023-10-02T06:33:25.024Z,101808.78
2023-10-02T06:34:28.519Z,101813.38
2023-10-02T06:35:30.204Z,101808.97
2023-10-02T06:36:33.162Z,101812.44
2023-10-02T06:37:36.093Z,101811.72
2023-10-02T06:38:37.827Z,101810.09
2023-10-02T06:39:41.467Z,101814.69
2023-10-02T06:40:43.058Z,101810.91
2023-10-02T06:41:45.490Z,101814.53
2023-10-02T06:42:47.194Z,101815.44
2023-10-02T06:43:49.115Z,101811.97
2023-10-02T06:44:50.851Z,101814.72
2023-10-02T06:45:52.567Z,101818.28
2023-10-02T06:46:56.901Z,101823.78
2023-10-02T06:47:59.495Z,101815.06
2023-10-02T06:49:01.349Z,101815.16
2023-10-02T06:50:03.271Z,101824.88
2023-10-02T06:51:05.101Z,101819.50
2023-10-02T06:52:09.169Z,101813.38
2023-10-02T06:53:13.621Z,101821.50
2023-10-02T06:54:15.486Z,101818.91
2023-10-02T06:55:17.227Z,101817.03
2023-10-02T06:56:20.855Z,101821.41
2023-10-02T06:57:23.725Z,101821.53
2023-10-02T06:58:25.399Z,101825.19
2023-10-02T06:59:27.063Z,101818.13
2023-10-02T07:00:31.481Z,101816.44
2023-10-02T07:01:33.173Z,101815.59
2023-10-02T07:02:34.805Z,101810.31
2023-10-02T07:03:36.539Z,101820.13
2023-10-02T07:04:38.264Z,101807.59
2023-10-02T07:05:40.250Z,101806.72
2023-10-02T07:06:53.226Z,101805.84
2023-10-02T07:08:15.553Z,101803.25
2023-10-02T07:09:17.423Z,101803.28
2023-10-02T07:10:28.419Z,101798.91
2023-10-02T07:11:30.293Z,101805.94
2023-10-02T07:12:31.904Z,101805.94
2023-10-02T07:13:36.601Z,101803.31
2023-10-02T07:14:42.374Z,101802.47
2023-10-02T07:15:47.979Z,101805.97
2023-10-02T07:16:49.885Z,101804.28
2023-10-02T07:17:51.644Z,101803.47
2023-10-02T07:18:53.320Z,101804.34
2023-10-02T07:19:55.292Z,101805.25
2023-10-02T07:20:57.371Z,101798.19
2023-10-02T07:21:59.114Z,101801.81
2023-10-02T07:23:00.905Z,101800.00
2023-10-02T07:24:04.993Z,101809.69
2023-10-02T07:25:07.668Z,101811.47
2023-10-02T07:26:15.352Z,101815.06
2023-10-02T07:27:17.703Z,101810.69
2023-10-02T07:28:19.652Z,101807.81
2023-10-02T07:29:21.729Z,101812.31
2023-10-02T07:30:23.446Z,101811.47
2023-10-02T07:31:25.091Z,101807.97
2023-10-02T07:32:28.201Z,101807.16
2023-10-02T07:33:33.294Z,101801.84
2023-10-02T07:34:34.767Z,101810.78
2023-10-02T07:35:36.382Z,101806.28
2023-10-02T07:36:38.295Z,101798.28
2023-10-02T07:37:40.138Z,101795.63
2023-10-02T07:38:42.456Z,101798.31
2023-10-02T07:39:45.533Z,101800.06
2023-10-02T07:40:47.140Z,101804.47
2023-10-02T07:41:49.027Z,101802.72
2023-10-02T07:42:50.601Z,101800.09
2023-10-02T07:43:52.739Z,101797.50
2023-10-02T07:44:54.533Z,101793.88
2023-10-02T07:46:03.701Z,101794.72
2023-10-02T07:47:07.004Z,101796.53
2023-10-02T07:48:08.926Z,101795.63
2023-10-02T07:49:10.600Z,101799.22
2023-10-02T07:50:12.293Z,101797.41
2023-10-02T07:51:13.944Z,101800.06
2023-10-02T07:52:15.909Z,101788.50
2023-10-02T07:53:18.432Z,101799.13
2023-10-02T07:54:20.093Z,101793.78
2023-10-02T07:55:23.165Z,101787.56
2023-10-02T07:56:25.146Z,101796.50
2023-10-02T07:57:27.183Z,101794.75
2023-10-02T07:58:28.792Z,101796.59
2023-10-02T07:59:30.543Z,101799.25
2023-10-02T08:00:32.364Z,101801.06
2023-10-02T08:01:34.058Z,101784.16
2023-10-02T08:02:35.856Z,101791.28
2023-10-02T08:03:39.019Z,101790.34
2023-10-02T08:04:40.671Z,101785.84
2023-10-02T08:05:42.280Z,101790.28
2023-10-02T08:06:55.436Z,101789.41
2023-10-02T08:08:06.283Z,101791.16
2023-10-02T08:09:08.556Z,101794.72
2023-10-02T08:10:10.356Z,101792.88
2023-10-02T08:11:13.832Z,101793.88
2023-10-02T08:12:16.333Z,101785.84
2023-10-02T08:13:18.198Z,101799.22
2023-10-02T08:14:20.637Z,101797.41
2023-10-02T08:15:22.473Z,101790.31
2023-10-02T08:16:24.110Z,101792.09
2023-10-02T08:17:27.245Z,101791.19
2023-10-02T08:18:29.453Z,101792.97
2023-10-02T08:19:31.086Z,101784.88
2023-10-02T08:20:33.348Z,101784.84
2023-10-02T08:21:35.920Z,101791.03
2023-10-02T08:22:38.434Z,101787.31
2023-10-02T08:23:41.011Z,101784.63
2023-10-02T08:24:42.742Z,101788.38
2023-10-02T08:25:45.078Z,101783.06
2023-10-02T08:26:48.968Z,101795.44
2023-10-02T08:27:52.156Z,101785.47
2023-10-02T08:28:54.539Z,101782.66
2023-10-02T08:29:56.768Z,101791.56
2023-10-02T08:30:59.310Z,101785.38
2023-10-02T08:32:01.646Z,101791.81
2023-10-02T08:33:06.241Z,101789.16
2023-10-02T08:34:14.384Z,101780.09
2023-10-02T08:35:17.242Z,101781.09
2023-10-02T08:36:19.039Z,101789.97
2023-10-02T08:37:20.910Z,101780.97
2023-10-02T08:38:22.547Z,101786.34
2023-10-02T08:39:24.642Z,101789.91
2023-10-02T08:40:27.873Z,101779.19
2023-10-02T08:41:29.789Z,101784.63
2023-10-02T08:42:32.759Z,101782.81
2023-10-02T08:43:34.958Z,101785.28
2023-10-02T08:44:37.515Z,101784.31
2023-10-02T08:45:39.144Z,101790.31
2023-10-02T08:46:41.013Z,101788.47
2023-10-02T08:47:42.790Z,101783.34
2023-10-02T08:48:44.522Z,101787.94
2023-10-02T08:49:46.268Z,101785.16
2023-10-02T08:50:48.418Z,101787.63
2023-10-02T08:51:50.997Z,101782.94
2023-10-02T08:52:52.930Z,101782.97
2023-10-02T08:53:56.391Z,101789.41
2023-10-02T08:54:57.978Z,101787.75
2023-10-02T08:56:13.234Z,101782.16
2023-10-02T08:57:15.051Z,101782.06
2023-10-02T08:58:20.981Z,101782.88
2023-10-02T08:59:22.826Z,101779.34
2023-10-02T09:00:24.590Z,101783.66
2023-10-02T09:01:26.279Z,101784.28
2023-10-02T09:02:28.473Z,101782.03
2023-10-02T09:03:31.281Z,101783.78
2023-10-02T09:04:33.029Z,101786.44
2023-10-02T09:05:35.123Z,101780.06
2023-10-02T09:06:37.927Z,101783.44
2023-10-02T09:07:39.569Z,101773.91
2023-10-02T09:08:41.458Z,101772.13
2023-10-02T09:09:43.633Z,101778.97
2023-10-02T09:10:51.986Z,101784.06
2023-10-02T09:11:55.036Z,101775.94
2023-10-02T09:13:10.887Z,101785.25
2023-10-02T09:14:14.098Z,101777.84
2023-10-02T09:15:32.252Z,101777.69
2023-10-02T09:16:35.177Z,101777.72
2023-10-02T09:17:41.885Z,101784.78
2023-10-02T09:18:43.574Z,101781.94
2023-10-02T09:19:46.276Z,101779.78
2023-10-02T09:20:51.324Z,101776.09
2023-10-02T09:21:53.027Z,101781.00
2023-10-02T09:22:59.019Z,101779.03
2023-10-02T09:24:01.024Z,101778.13
2023-10-02T09:25:08.328Z,101778.97
2023-10-02T09:26:10.191Z,101771.34
2023-10-02T09:27:13.963Z,101774.19
2023-10-02T09:28:15.471Z,101769.53
2023-10-02T09:29:18.740Z,101774.94
2023-10-02T09:30:20.709Z,101778.44
2023-10-02T09:31:23.420Z,101774.69
2023-10-02T09:32:25.648Z,101775.91
2023-10-02T09:33:29.772Z,101764.25
2023-10-02T09:35:34.120Z,101780.59
2023-10-02T09:36:38.521Z,101774.34
2023-10-02T09:38:04.517Z,101766.38
2023-10-02T09:38:58.765Z,101766.41
2023-10-02T09:40:01.944Z,101767.81
2023-10-02T09:41:04.417Z,101762.97
2023-10-02T09:42:06.291Z,101754.53
2023-10-02T09:43:12.012Z,101757.44
2023-10-02T09:44:14.733Z,101750.56
2023-10-02T09:45:23.245Z,101751.41
2023-10-02T09:46:25.090Z,101751.06
2023-10-02T09:47:27.270Z,101752.44
2023-10-02T09:48:37.634Z,101748.75
2023-10-02T09:49:46.552Z,101745.94
2023-10-02T09:50:48.526Z,101744.50
2023-10-02T09:51:59.632Z,101743.72
2023-10-02T09:53:04.724Z,101744.84
2023-10-02T09:54:29.097Z,101741.03
2023-10-02T09:55:43.088Z,101744.25
2023-10-02T09:56:56.111Z,101744.13
2023-10-02T09:57:59.048Z,101743.47
2023-10-02T09:59:00.971Z,101738.97
2023-10-02T10:00:07.112Z,101747.22
2023-10-02T10:01:16.105Z,101747.22
2023-10-02T10:02:19.547Z,101749.03
2023-10-02T10:03:29.584Z,101738.00
2023-10-02T10:05:04.836Z,101741.19
2023-10-02T10:06:19.109Z,101734.97
2023-10-02T10:07:22.042Z,101738.69
2023-10-02T10:08:23.799Z,101738.19
2023-10-02T10:09:25.416Z,101734.44
2023-10-02T10:10:27.843Z,101731.56
2023-10-02T10:11:29.641Z,101734.50
2023-10-02T10:12:35.750Z,101730.50
2023-10-02T10:13:38.796Z,101733.13
2023-10-02T10:14:40.609Z,101732.44
2023-10-02T10:15:42.513Z,101737.56
2023-10-02T10:16:45.544Z,101731.34
2023-10-02T10:17:55.447Z,101733.66
2023-10-02T10:19:10.460Z,101737.69
2023-10-02T10:20:22.181Z,101734.03
2023-10-02T10:21:40.334Z,101733.13
2023-10-02T10:22:44.229Z,101738.84
2023-10-02T10:23:45.965Z,101727.25
2023-10-02T10:24:48.540Z,101728.47
2023-10-02T10:25:50.286Z,101724.38
2023-10-02T10:26:51.948Z,101724.81
2023-10-02T10:27:55.079Z,101723.69
2023-10-02T10:28:56.994Z,101720.13
2023-10-02T10:29:58.654Z,101718.75
2023-10-02T10:31:00.442Z,101712.75
2023-10-02T10:32:18.379Z,101722.78
2023-10-02T10:33:38.278Z,101716.56
2023-10-02T10:35:01.064Z,101715.41
2023-10-02T10:36:03.491Z,101711.16
2023-10-02T10:37:40.074Z,101717.28
2023-10-02T10:38:41.723Z,101721.69
2023-10-02T10:39:53.673Z,101717.34
2023-10-02T10:40:55.991Z,101716.75
2023-10-02T10:42:02.076Z,101711.00
2023-10-02T10:43:03.933Z,101711.09
2023-10-02T10:44:13.879Z,101710.28
2023-10-02T10:45:15.717Z,101713.19
2023-10-02T10:46:20.029Z,101711.59
2023-10-02T10:47:38.632Z,101712.97
2023-10-02T10:48:40.466Z,101714.56
2023-10-02T10:49:49.517Z,101708.03
2023-10-02T10:50:52.474Z,101706.22
2023-10-02T10:51:54.417Z,101711.09
2023-10-02T10:53:03.220Z,101710.63
2023-10-02T10:54:10.925Z,101700.09
2023-10-02T10:55:26.401Z,101705.56
2023-10-02T10:56:28.130Z,101700.50
2023-10-02T10:57:29.870Z,101691.66
2023-10-02T10:58:31.885Z,101686.94
2023-10-02T10:59:33.551Z,101692.06
2023-10-02T11:00:35.340Z,101695.63
2023-10-02T11:01:37.229Z,101697.84
2023-10-02T11:02:40.333Z,101688.50
2023-10-02T11:03:42.130Z,101680.91
2023-10-02T11:04:47.747Z,101679.84
2023-10-02T11:05:49.632Z,101682.78
2023-10-02T11:06:51.314Z,101692.88
2023-10-02T11:07:53.107Z,101687.94
2023-10-02T11:09:08.074Z,101693.72
2023-10-02T11:10:10.182Z,101681.19
2023-10-02T11:11:14.050Z,101679.34
2023-10-02T11:12:15.676Z,101682.59
2023-10-02T11:13:24.927Z,101686.13
2023-10-02T11:14:36.164Z,101688.38
2023-10-02T11:15:37.811Z,101674.59
2023-10-02T11:16:39.460Z,101677.00
2023-10-02T11:17:42.663Z,101674.50
2023-10-02T11:19:03.033Z,101668.16
2023-10-02T11:20:05.684Z,101678.53
2023-10-02T11:21:21.273Z,101666.66
2023-10-02T11:22:22.853Z,101669.34
2023-10-02T11:23:42.422Z,101669.66
2023-10-02T11:24:45.969Z,101658.34
2023-10-02T11:25:56.989Z,101656.09
2023-10-02T11:27:08.625Z,101658.91
2023-10-02T11:28:10.300Z,101660.50
2023-10-02T11:29:16.685Z,101650.84
2023-10-02T11:30:22.651Z,101652.63
2023-10-02T11:31:25.604Z,101655.91
2023-10-02T11:32:48.126Z,101656.50
2023-10-02T11:33:49.796Z,101661.50
2023-10-02T11:34:53.049Z,101656.53
2023-10-02T11:35:54.731Z,101652.44
2023-10-02T11:36:56.793Z,101650.13
2023-10-02T11:37:58.926Z,101648.41
2023-10-02T11:39:02.494Z,101649.44
2023-10-02T11:40:04.600Z,101644.88
2023-10-02T11:41:06.436Z,101646.69
2023-10-02T11:42:08.138Z,101646.59
2023-10-02T11:43:09.739Z,101643.91
2023-10-02T11:44:11.445Z,101638.06
2023-10-02T11:45:13.187Z,101643.53
2023-10-02T11:46:14.931Z,101650.09
2023-10-02T11:47:19.270Z,101644.16
2023-10-02T11:48:22.461Z,101640.75
2023-10-02T11:49:24.107Z,101634.19
2023-10-02T11:50:25.775Z,101641.44
2023-10-02T11:51:27.508Z,101633.47
2023-10-02T11:52:29.199Z,101643.00
2023-10-02T11:53:31.128Z,101643.25
2023-10-02T11:54:33.415Z,101633.84
2023-10-02T11:55:35.025Z,101639.06
2023-10-02T11:56:37.210Z,101649.66
2023-10-02T11:57:38.831Z,101638.41
2023-10-02T11:58:40.531Z,101642.19
2023-10-02T11:59:43.662Z,101641.84
2023-10-02T12:00:46.438Z,101642.41
2023-10-02T12:01:48.120Z,101643.69
2023-10-02T12:02:50.267Z,101639.22